createdAt,value
2018-03-06T00:01:08.245Z,60.47
2018-03-06T00:03:35.800Z,67.30
2018-03-06T00:06:03.347Z,68.85
2018-03-06T00:08:30.881Z,65.85
2018-03-06T00:10:58.428Z,55.22
2018-03-06T00:13:25.997Z,63.78
2018-03-06T00:15:53.515Z,65.85
2018-03-06T00:18:21.094Z,65.72
2018-03-06T00:20:48.600Z,65.97
2018-03-06T00:23:16.136Z,66.03
2018-03-06T00:25:44.460Z,76.62
2018-03-06T00:28:11.990Z,58.53
2018-03-06T00:30:39.619Z,58.40
2018-03-06T00:33:07.918Z,74.43
2018-03-06T00:35:35.438Z,57.80
2018-03-06T00:38:02.997Z,53.87
2018-03-06T00:40:30.542Z,63.00
2018-03-06T00:42:58.078Z,65.12
2018-03-06T00:45:25.605Z,70.72
2018-03-06T00:47:53.150Z,62.83
2018-03-06T00:50:20.707Z,62.42
2018-03-06T00:52:48.227Z,71.37
2018-03-06T00:55:15.762Z,61.10
2018-03-06T00:57:44.031Z,73.15
2018-03-06T01:00:12.325Z,62.65
2018-03-06T01:02:39.871Z,57.17
2018-03-06T01:05:07.434Z,62.95
2018-03-06T01:07:35.728Z,54.03
2018-03-06T01:10:03.267Z,56.37
2018-03-06T01:12:30.827Z,57.00
2018-03-06T01:14:59.126Z,55.67
2018-03-06T01:17:26.643Z,53.10
2018-03-06T01:19:54.195Z,61.72
2018-03-06T01:22:21.725Z,61.58
2018-03-06T01:24:49.255Z,66.53
2018-03-06T01:27:16.816Z,65.80
2018-03-06T01:29:45.124Z,58.63
2018-03-06T01:32:12.658Z,62.35
2018-03-06T01:34:40.173Z,56.92
2018-03-06T01:37:07.744Z,59.80
2018-03-06T01:39:35.287Z,49.15
2018-03-06T01:42:02.807Z,63.38
2018-03-06T01:44:30.366Z,59.40
2018-03-06T01:46:57.917Z,62.25
2018-03-06T01:49:25.455Z,55.53
2018-03-06T01:51:58.947Z,61.22
2018-03-06T01:54:26.497Z,57.50
2018-03-06T01:56:54.019Z,61.63
2018-03-06T01:59:21.544Z,64.00
2018-03-06T02:01:49.854Z,55.47
2018-03-06T02:04:17.400Z,57.95
2018-03-06T02:06:44.929Z,56.47
2018-03-06T02:09:13.344Z,60.67
2018-03-06T02:11:40.887Z,54.53
2018-03-06T02:14:08.412Z,53.25
2018-03-06T02:16:35.954Z,64.00
2018-03-06T02:19:03.489Z,72.12
2018-03-06T02:21:31.020Z,70.10
2018-03-06T02:23:58.568Z,60.92
2018-03-06T02:26:26.874Z,63.15
2018-03-06T02:28:54.971Z,67.80
2018-03-06T02:31:22.547Z,55.45
2018-03-06T02:33:50.084Z,67.40
2018-03-06T02:36:17.634Z,69.87
2018-03-06T02:38:45.208Z,63.75
2018-03-06T02:41:12.764Z,54.88
2018-03-06T02:43:40.302Z,64.10
2018-03-06T02:46:10.664Z,76.10
2018-03-06T02:48:38.210Z,58.05
2018-03-06T02:51:05.734Z,64.30
2018-03-06T02:53:34.023Z,56.60
2018-03-06T02:56:01.557Z,62.03
2018-03-06T02:58:29.096Z,62.45
2018-03-06T03:00:56.643Z,66.57
2018-03-06T03:03:24.260Z,74.65
2018-03-06T03:05:51.797Z,63.87
2018-03-06T03:08:19.341Z,65.97
2018-03-06T03:10:46.896Z,58.30
2018-03-06T03:13:14.413Z,59.08
2018-03-06T03:15:41.930Z,58.38
2018-03-06T03:18:09.478Z,56.00
2018-03-06T03:20:37.048Z,56.55
2018-03-06T03:23:04.576Z,61.72
2018-03-06T03:25:32.092Z,65.45
2018-03-06T03:27:59.610Z,55.95
2018-03-06T03:30:27.161Z,67.50
2018-03-06T03:32:54.700Z,57.58
2018-03-06T03:35:22.329Z,56.13
2018-03-06T03:37:49.867Z,60.15
2018-03-06T03:40:17.410Z,59.20
2018-03-06T03:42:44.950Z,66.03
2018-03-06T03:45:12.474Z,64.65
2018-03-06T03:47:40.088Z,64.82
2018-03-06T03:50:07.613Z,62.65
2018-03-06T03:52:35.176Z,65.37
2018-03-06T03:55:02.715Z,61.08
2018-03-06T03:57:30.243Z,64.37
2018-03-06T03:59:58.537Z,56.42
2018-03-06T04:02:26.072Z,69.50
2018-03-06T04:04:53.616Z,62.83
2018-03-06T04:07:21.247Z,66.40
2018-03-06T04:09:48.784Z,60.30
2018-03-06T04:12:16.321Z,60.08
2018-03-06T04:14:43.855Z,60.95
2018-03-06T04:17:11.604Z,74.18
2018-03-06T04:19:39.160Z,68.70
2018-03-06T04:22:06.670Z,62.72
2018-03-06T04:24:34.223Z,74.62
2018-03-06T04:27:01.752Z,60.67
2018-03-06T04:29:29.258Z,62.67
2018-03-06T04:49:15.185Z,56.65
2018-03-06T04:51:42.702Z,71.70
2018-03-06T04:54:10.244Z,63.00
2018-03-06T04:56:37.781Z,60.70
2018-03-06T04:59:05.310Z,75.35
2018-03-06T05:01:32.915Z,74.80
2018-03-06T05:04:00.439Z,65.80
2018-03-06T05:06:27.967Z,68.40
2018-03-06T05:08:55.558Z,70.53
2018-03-06T05:11:23.078Z,68.43
2018-03-06T05:13:50.637Z,63.45
2018-03-06T05:16:18.198Z,68.05
2018-03-06T05:18:45.732Z,68.78
2018-03-06T05:21:13.278Z,70.53
2018-03-06T05:23:40.839Z,76.78
2018-03-06T05:26:08.371Z,79.18
2018-03-06T05:28:35.920Z,74.25
2018-03-06T05:31:04.210Z,73.78
2018-03-06T05:33:32.506Z,66.28
2018-03-06T05:36:00.078Z,70.25
2018-03-06T05:38:27.757Z,74.90
2018-03-06T05:40:55.264Z,66.40
2018-03-06T05:43:23.580Z,71.90
2018-03-06T05:45:51.148Z,77.47
2018-03-06T05:48:19.524Z,68.82
2018-03-06T05:50:47.043Z,79.47
2018-03-06T05:53:14.600Z,73.55
2018-03-06T05:55:42.936Z,73.10
2018-03-06T05:58:10.522Z,69.45
2018-03-06T06:00:38.050Z,70.32
2018-03-06T06:03:05.600Z,71.07
2018-03-06T06:05:33.179Z,71.93
2018-03-06T06:08:00.717Z,75.40
2018-03-06T06:10:28.264Z,70.50
2018-03-06T06:12:55.804Z,80.22
2018-03-06T06:15:24.132Z,75.68
2018-03-06T06:17:51.722Z,72.85
2018-03-06T06:20:19.300Z,68.60
2018-03-06T06:22:46.820Z,76.35
2018-03-06T06:25:14.388Z,74.82
2018-03-06T06:27:41.900Z,68.60
2018-03-06T06:30:10.259Z,74.20
2018-03-06T06:32:37.797Z,69.82
2018-03-06T06:35:05.355Z,73.25
2018-03-06T06:37:33.163Z,80.15
2018-03-06T06:40:01.010Z,80.20
2018-03-06T06:42:28.785Z,72.18
2018-03-06T06:44:56.348Z,61.05
2018-03-06T06:47:24.681Z,75.62
2018-03-06T06:49:53.217Z,74.95
2018-03-06T06:52:20.916Z,71.28
2018-03-06T06:54:48.440Z,75.62
2018-03-06T06:57:15.977Z,93.60
2018-03-06T06:59:43.485Z,70.47
2018-03-06T07:02:11.007Z,70.05
2018-03-06T07:04:39.297Z,74.53
2018-03-06T07:07:07.561Z,71.12
2018-03-06T07:09:35.910Z,83.32
2018-03-06T07:12:03.442Z,69.25
2018-03-06T07:14:30.961Z,76.57
2018-03-06T07:16:59.315Z,77.93
2018-03-06T07:19:26.862Z,71.80
2018-03-06T07:21:55.152Z,67.22
2018-03-06T07:24:22.704Z,72.72
2018-03-06T07:26:50.234Z,71.85
2018-03-06T07:29:17.763Z,69.40
2018-03-06T07:31:46.052Z,71.60
2018-03-06T07:34:14.944Z,71.53
2018-03-06T07:36:42.469Z,66.55
2018-03-06T07:39:09.979Z,74.20
2018-03-06T07:41:37.495Z,64.68
2018-03-06T07:44:05.798Z,66.18
2018-03-06T07:46:33.330Z,69.50
2018-03-06T07:49:00.851Z,73.82
2018-03-06T07:51:28.427Z,74.15
2018-03-06T07:53:55.935Z,74.50
2018-03-06T07:56:23.981Z,93.40
2018-03-06T07:58:51.503Z,64.85
2018-03-06T08:01:19.072Z,68.53
2018-03-06T08:03:46.607Z,70.05
2018-03-06T08:06:14.139Z,72.47
2018-03-06T08:08:43.422Z,65.55
2018-03-06T08:11:11.697Z,72.70
2018-03-06T08:13:39.983Z,75.07
2018-03-06T08:16:08.268Z,65.40
2018-03-06T08:18:35.794Z,61.25
2018-03-06T08:21:03.319Z,66.03
2018-03-06T08:23:30.857Z,68.70
2018-03-06T08:25:58.365Z,66.72
2018-03-06T08:28:25.906Z,65.37
2018-03-06T08:30:53.447Z,62.22
2018-03-06T08:33:20.969Z,64.25
2018-03-06T08:35:49.287Z,66.07
2018-03-06T08:38:16.807Z,65.72
2018-03-06T08:40:45.135Z,72.05
2018-03-06T08:43:12.705Z,64.32
2018-03-06T08:45:40.248Z,66.70
2018-03-06T08:48:07.778Z,70.47
2018-03-06T08:50:35.292Z,64.22
2018-03-06T08:53:02.821Z,62.20
2018-03-06T08:55:30.457Z,66.40
2018-03-06T08:57:58.778Z,59.72
2018-03-06T09:00:26.294Z,70.25
2018-03-06T09:02:53.811Z,69.15
2018-03-06T09:05:21.375Z,68.47
2018-03-06T09:07:48.872Z,63.03
2018-03-06T09:10:16.425Z,63.17
2018-03-06T09:12:44.753Z,69.80
2018-03-06T09:15:12.292Z,69.85
2018-03-06T09:17:39.815Z,74.60
2018-03-06T09:20:07.326Z,69.60
2018-03-06T09:22:34.849Z,66.55
2018-03-06T09:25:03.120Z,58.13
2018-03-06T09:27:30.716Z,65.00
2018-03-06T09:29:58.217Z,69.47
2018-03-06T09:32:25.747Z,68.65
2018-03-06T09:34:53.285Z,64.65
2018-03-06T09:37:20.922Z,70.37
2018-03-06T09:39:48.663Z,73.82
2018-03-06T09:42:16.255Z,77.05
2018-03-06T09:44:43.850Z,67.85
2018-03-06T09:47:11.397Z,78.62
2018-03-06T09:49:38.967Z,81.10
2018-03-06T09:52:06.481Z,68.05
2018-03-06T09:54:34.812Z,66.78
2018-03-06T09:57:02.366Z,79.32
2018-03-06T09:59:29.879Z,71.18
2018-03-06T10:01:57.457Z,70.97
2018-03-06T10:04:25.404Z,70.97
2018-03-06T10:06:53.278Z,71.55
2018-03-06T10:09:21.752Z,72.00
2018-03-06T10:11:49.411Z,72.78
2018-03-06T10:14:16.923Z,69.12
2018-03-06T10:16:44.538Z,71.45
2018-03-06T10:19:13.008Z,75.07
2018-03-06T10:21:40.570Z,66.30
2018-03-06T10:24:09.362Z,65.35
2018-03-06T10:26:36.915Z,66.85
2018-03-06T10:29:04.466Z,61.75
2018-03-06T10:31:32.011Z,63.22
2018-03-06T10:33:59.568Z,61.90
2018-03-06T10:36:29.889Z,61.20
2018-03-06T10:38:58.646Z,63.60
2018-03-06T10:41:26.364Z,55.33
2018-03-06T10:43:54.065Z,59.92
2018-03-06T10:46:21.559Z,69.55
2018-03-06T10:48:49.064Z,58.70
2018-03-06T10:51:16.574Z,53.85
2018-03-06T10:53:44.097Z,54.90
2018-03-06T10:56:28.101Z,57.62
2018-03-06T10:58:55.653Z,57.38
2018-03-06T11:01:25.085Z,66.10
2018-03-06T11:03:52.606Z,61.08
2018-03-06T11:06:20.123Z,70.35
2018-03-06T11:08:48.418Z,65.95
2018-03-06T11:11:15.947Z,62.53
2018-03-06T11:13:43.476Z,64.72
2018-03-06T11:16:11.047Z,80.50
2018-03-06T11:18:38.568Z,65.80
2018-03-06T11:21:06.118Z,79.45
2018-03-06T11:23:33.647Z,65.20
2018-03-06T11:26:01.158Z,66.45
2018-03-06T11:28:28.698Z,75.22
2018-03-06T11:30:56.238Z,63.03
2018-03-06T11:33:23.756Z,64.82
2018-03-06T11:35:51.288Z,71.35
2018-03-06T11:38:18.876Z,74.18
2018-03-06T11:40:46.392Z,66.60
2018-03-06T11:43:13.894Z,66.55
2018-03-06T11:45:41.415Z,90.80
2018-03-06T11:48:08.954Z,73.32
2018-03-06T11:50:37.228Z,68.60
2018-03-06T11:53:05.607Z,87.10
2018-03-06T11:55:33.966Z,69.97
2018-03-06T11:58:01.485Z,71.57
2018-03-06T12:00:29.030Z,78.97
2018-03-06T12:02:56.573Z,80.32
2018-03-06T12:05:24.862Z,64.78
2018-03-06T12:07:52.384Z,63.03
2018-03-06T12:10:19.966Z,75.40
2018-03-06T12:12:48.231Z,76.12
2018-03-06T12:15:15.752Z,81.72
2018-03-06T12:17:43.269Z,99.95
2018-03-06T12:20:11.568Z,65.80
2018-03-06T12:22:39.108Z,60.63
2018-03-06T12:25:06.626Z,61.13
2018-03-06T12:27:34.147Z,61.13
2018-03-06T12:30:01.759Z,62.35
2018-03-06T12:32:29.257Z,73.93
2018-03-06T12:34:56.812Z,67.22
2018-03-06T12:37:24.347Z,69.85
2018-03-06T12:39:52.174Z,67.97
2018-03-06T12:42:19.682Z,79.87
2018-03-06T12:44:47.238Z,62.40
2018-03-06T12:47:15.559Z,65.53
2018-03-06T12:49:43.145Z,72.65
2018-03-06T12:52:13.180Z,66.97
2018-03-06T12:54:40.752Z,78.03
2018-03-06T12:57:08.257Z,86.28
2018-03-06T12:59:35.804Z,71.28
2018-03-06T13:02:03.326Z,82.88
2018-03-06T13:04:31.596Z,69.90
2018-03-06T13:06:59.121Z,77.85
2018-03-06T13:09:26.639Z,73.85
2018-03-06T13:11:54.152Z,74.32
2018-03-06T13:14:21.727Z,67.20
2018-03-06T13:16:49.237Z,67.10
2018-03-06T13:19:16.743Z,80.22
2018-03-06T13:21:44.246Z,73.97
2018-03-06T13:24:11.759Z,71.50
2018-03-06T13:26:39.262Z,64.90
2018-03-06T13:29:06.787Z,79.05
2018-03-06T13:31:34.314Z,77.10
2018-03-06T13:34:01.994Z,87.35
2018-03-06T13:36:29.524Z,84.03
2018-03-06T13:38:57.059Z,82.28
2018-03-06T13:41:25.775Z,84.18
2018-03-06T13:43:53.280Z,86.37
2018-03-06T13:46:20.832Z,80.72
2018-03-06T13:48:50.459Z,82.15
2018-03-06T13:51:19.054Z,84.65
2018-03-06T13:53:47.330Z,94.72
2018-03-06T13:56:15.759Z,94.40
2018-03-06T13:58:43.298Z,87.18
2018-03-06T14:01:10.972Z,106.37
2018-03-06T14:03:38.530Z,108.03
2018-03-06T14:06:06.091Z,107.37
2018-03-06T14:08:33.644Z,105.60
2018-03-06T14:28:18.627Z,103.35
2018-03-06T14:30:46.159Z,114.30
2018-03-06T14:33:13.674Z,112.72
2018-03-06T14:35:41.209Z,112.95
2018-03-06T14:38:08.775Z,120.15
2018-03-06T14:40:36.370Z,122.22
2018-03-06T14:43:03.885Z,116.28
2018-03-06T14:45:31.403Z,114.85
2018-03-06T14:47:58.939Z,122.10
2018-03-06T14:50:26.457Z,124.22
2018-03-06T14:52:53.986Z,131.70
2018-03-06T14:55:21.515Z,138.85
2018-03-06T14:57:49.047Z,118.03
2018-03-06T15:00:16.632Z,105.93
2018-03-06T15:02:44.903Z,121.20
2018-03-06T15:05:12.432Z,112.37
2018-03-06T15:07:40.004Z,104.82
2018-03-06T15:10:07.528Z,109.12
2018-03-06T15:12:35.819Z,111.65
2018-03-06T15:15:03.333Z,102.87
2018-03-06T15:17:31.025Z,93.10
2018-03-06T15:19:58.549Z,110.97
2018-03-06T15:22:26.089Z,112.53
2018-03-06T15:24:53.605Z,105.03
2018-03-06T15:27:21.118Z,102.90
2018-03-06T15:29:48.844Z,109.30
2018-03-06T15:32:16.361Z,102.53
2018-03-06T15:34:43.902Z,116.75
2018-03-06T15:37:11.418Z,105.25
2018-03-06T15:39:38.947Z,114.57
2018-03-06T15:42:06.487Z,121.47
2018-03-06T15:44:34.193Z,107.22
2018-03-06T15:47:02.476Z,111.88
2018-03-06T15:49:30.012Z,115.22
2018-03-06T15:51:57.538Z,123.10
2018-03-06T15:54:25.051Z,122.32
2018-03-06T15:56:52.575Z,124.85
2018-03-06T15:59:20.111Z,117.40
2018-03-06T16:01:47.616Z,119.50
2018-03-06T16:04:15.928Z,122.50
2018-03-06T16:06:43.462Z,124.20
2018-03-06T16:09:11.029Z,120.05
2018-03-06T16:11:38.546Z,111.60
2018-03-06T16:14:06.099Z,122.93
2018-03-06T16:16:33.746Z,125.18
2018-03-06T16:19:01.267Z,122.10
2018-03-06T16:21:28.780Z,121.15
2018-03-06T16:23:56.321Z,116.53
2018-03-06T16:26:23.849Z,136.60
2018-03-06T16:28:51.472Z,128.62
2018-03-06T16:31:19.346Z,123.65
2018-03-06T16:33:46.867Z,139.62
2018-03-06T16:36:14.397Z,131.50
2018-03-06T16:38:41.918Z,137.20
2018-03-06T16:41:09.442Z,115.68
2018-03-06T16:43:37.594Z,133.77
2018-03-06T16:46:05.248Z,144.95
2018-03-06T16:48:32.784Z,140.07
2018-03-06T16:51:01.102Z,144.73
2018-03-06T16:53:28.662Z,134.07
2018-03-06T16:55:56.171Z,141.52
2018-03-06T16:58:23.748Z,127.68
2018-03-06T17:00:52.039Z,134.65
2018-03-06T17:03:19.555Z,148.62
2018-03-06T17:05:47.191Z,154.40
2018-03-06T17:08:14.854Z,153.43
2018-03-06T17:10:42.388Z,154.60
2018-03-06T17:13:09.923Z,146.57
2018-03-06T17:15:38.270Z,150.90
2018-03-06T17:18:05.780Z,157.80
2018-03-06T17:20:33.357Z,147.18
2018-03-06T17:23:00.881Z,164.00
2018-03-06T17:25:29.174Z,155.75
2018-03-06T17:27:57.474Z,144.40
2018-03-06T17:30:25.061Z,156.00
2018-03-06T17:32:52.635Z,139.43
2018-03-06T17:35:20.175Z,142.65
2018-03-06T17:37:47.771Z,154.43
2018-03-06T17:40:15.356Z,140.80
2018-03-06T17:42:42.871Z,157.07
2018-03-06T17:45:10.384Z,144.05
2018-03-06T17:47:37.913Z,144.52
2018-03-06T17:50:06.242Z,143.70
2018-03-06T17:52:33.817Z,144.05
2018-03-06T17:55:01.464Z,135.75
2018-03-06T17:57:29.050Z,143.55
2018-03-06T17:59:56.591Z,149.90
2018-03-06T18:02:24.111Z,124.75
2018-03-06T18:04:52.426Z,143.85
2018-03-06T18:07:20.029Z,135.48
2018-03-06T18:09:47.641Z,129.40
2018-03-06T18:12:17.036Z,127.22
2018-03-06T18:14:44.633Z,134.77
2018-03-06T18:17:12.915Z,122.03
2018-03-06T18:19:40.452Z,129.95
2018-03-06T18:22:08.613Z,128.40
2018-03-06T18:24:36.481Z,121.93
2018-03-06T18:27:04.008Z,130.98
2018-03-06T18:29:32.332Z,122.15
2018-03-06T18:32:00.004Z,132.82
2018-03-06T18:34:27.666Z,117.75
2018-03-06T18:36:55.273Z,124.97
2018-03-06T18:39:28.422Z,131.00
2018-03-06T18:42:15.931Z,128.25
2018-03-06T18:44:44.344Z,125.43
2018-03-06T18:47:11.864Z,118.65
2018-03-06T18:49:51.168Z,124.22
2018-03-06T18:52:18.759Z,110.63
2018-03-06T18:54:46.290Z,115.00
2018-03-06T18:57:14.703Z,116.55
2018-03-06T18:59:42.265Z,112.97
2018-03-06T19:02:21.709Z,119.45
2018-03-06T19:05:01.035Z,110.43
2018-03-06T19:07:28.627Z,110.50
2018-03-06T19:09:56.146Z,117.50
2018-03-06T19:12:24.272Z,105.65
2018-03-06T19:14:51.810Z,107.20
2018-03-06T19:17:19.405Z,108.47
2018-03-06T19:19:46.968Z,105.82
2018-03-06T19:22:15.295Z,102.53
2018-03-06T19:24:42.827Z,108.75
2018-03-06T19:27:10.439Z,102.62
2018-03-06T19:29:39.236Z,97.12
2018-03-06T19:32:06.795Z,95.95
2018-03-06T19:34:34.354Z,110.18
2018-03-06T19:37:02.678Z,107.80
2018-03-06T19:39:30.298Z,96.18
2018-03-06T19:41:58.406Z,101.07
2018-03-06T19:44:26.491Z,93.15
2018-03-06T19:46:54.250Z,94.07
2018-03-06T19:49:21.919Z,97.22
2018-03-06T19:51:49.652Z,99.62
2018-03-06T19:54:18.071Z,87.93
2018-03-06T19:56:45.658Z,91.55
2018-03-06T19:59:13.233Z,88.35
2018-03-06T20:01:40.892Z,81.28
2018-03-06T20:04:08.447Z,87.45
2018-03-06T20:06:36.096Z,98.28
2018-03-06T20:09:03.896Z,83.60
2018-03-06T20:11:31.468Z,78.82
2018-03-06T20:13:59.021Z,87.55
2018-03-06T20:16:27.362Z,75.78
2018-03-06T20:19:00.552Z,83.87
2018-03-06T20:21:28.147Z,82.62
2018-03-06T20:23:55.736Z,84.37
2018-03-06T20:26:23.334Z,69.78
2018-03-06T20:28:51.012Z,77.72
2018-03-06T20:31:24.263Z,75.03
2018-03-06T20:33:51.825Z,73.30
2018-03-06T20:36:19.396Z,83.47
2018-03-06T20:38:52.509Z,83.05
2018-03-06T20:41:20.073Z,67.12
2018-03-06T20:43:47.607Z,80.45
2018-03-06T20:46:20.813Z,79.93
2018-03-06T20:48:48.410Z,66.95
2018-03-06T20:51:15.944Z,67.53
2018-03-06T20:53:49.190Z,65.43
2018-03-06T20:56:18.527Z,60.50
2018-03-06T20:58:46.078Z,73.65
2018-03-06T21:01:13.630Z,68.57
2018-03-06T21:03:41.155Z,74.75
2018-03-06T21:06:08.684Z,72.05
2018-03-06T21:08:36.318Z,75.35
2018-03-06T21:11:04.602Z,69.60
2018-03-06T21:13:32.210Z,59.80
2018-03-06T21:15:59.872Z,79.70
2018-03-06T21:18:27.449Z,64.10
2018-03-06T21:20:54.997Z,60.90
2018-03-06T21:23:22.531Z,70.20
2018-03-06T21:25:50.049Z,62.50
2018-03-06T21:28:17.584Z,60.00
2018-03-06T21:30:45.982Z,65.43
2018-03-06T21:33:13.535Z,66.60
2018-03-06T21:35:41.861Z,67.55
2018-03-06T21:38:09.475Z,68.10
2018-03-06T21:40:37.770Z,72.00
2018-03-06T21:43:05.354Z,68.10
2018-03-06T21:45:32.932Z,68.70
2018-03-06T21:48:00.493Z,63.87
2018-03-06T21:50:28.031Z,59.75
2018-03-06T21:52:55.578Z,59.35
2018-03-06T21:55:23.186Z,67.22
2018-03-06T21:57:50.775Z,62.35
2018-03-06T22:00:18.309Z,67.82
2018-03-06T22:02:45.847Z,60.72
2018-03-06T22:05:13.478Z,64.05
2018-03-06T22:07:41.041Z,68.95
2018-03-06T22:10:08.684Z,65.18
2018-03-06T22:12:36.295Z,72.35
2018-03-06T22:15:03.875Z,56.10
2018-03-06T22:17:31.406Z,60.63
2018-03-06T22:19:58.973Z,62.30
2018-03-06T22:22:26.558Z,61.88
2018-03-06T22:24:54.106Z,66.85
2018-03-06T22:27:21.655Z,57.47
2018-03-06T22:29:49.200Z,63.30
2018-03-06T22:32:16.707Z,53.25
2018-03-06T22:34:44.261Z,55.53
2018-03-06T22:37:11.798Z,56.47
2018-03-06T22:39:39.328Z,60.53
2018-03-06T22:42:06.865Z,59.08
2018-03-06T22:44:34.464Z,61.15
2018-03-06T22:47:01.999Z,55.35
2018-03-06T22:49:29.525Z,50.08
2018-03-06T22:51:57.054Z,55.55
2018-03-06T22:54:24.582Z,53.87
2018-03-06T22:56:52.102Z,53.55
2018-03-06T22:59:19.641Z,57.20
2018-03-06T23:01:47.155Z,50.72
2018-03-06T23:04:14.699Z,51.35
2018-03-06T23:06:42.230Z,52.25
2018-03-06T23:09:09.758Z,54.95
2018-03-06T23:11:37.296Z,52.00
2018-03-06T23:14:04.816Z,51.05
2018-03-06T23:16:33.118Z,46.20
2018-03-06T23:19:00.640Z,53.28
2018-03-06T23:21:28.144Z,54.92
2018-03-06T23:23:55.674Z,55.55
2018-03-06T23:26:23.968Z,51.97
2018-03-06T23:28:52.286Z,49.22
2018-03-06T23:31:19.877Z,52.50
2018-03-06T23:33:47.406Z,58.90
2018-03-06T23:36:15.011Z,54.17
2018-03-06T23:38:43.312Z,53.97
2018-03-06T23:41:10.865Z,54.97
2018-03-06T23:43:38.396Z,47.67
2018-03-06T23:46:05.919Z,56.67
2018-03-06T23:48:33.446Z,51.97
2018-03-06T23:51:00.966Z,49.55
2018-03-06T23:53:28.466Z,55.33
2018-03-06T23:55:56.016Z,49.65
2018-03-06T23:58:23.544Z,49.53
